Time;durP1;ratioP1;P1;durP2;ratioP2;P2;SDS_P1;SDS_P2;PMS_P1;PMS_P2;Temp;Humidity;BMP_temperature;BMP_pressure;BME280_temperature;BME280_humidity;BME280_pressure;Samples;Min_cycle;Max_cycle;Signal;HPM_P1;HPM_P2
2022/12/15 00:39:57;;;;;;;35.85;16.88;;;;;;;-3.58;100.00;96053.19;5028941;28;20567;-61
2022/12/15 00:42:27;;;;;;;39.00;18.87;;;;;;;-3.49;100.00;96063.63;5033592;28;20038;-64
2022/12/15 00:44:55;;;;;;;37.95;18.95;;;;;;;-3.43;100.00;96076.09;5027936;28;20041;-64
2022/12/15 00:47:22;;;;;;;36.97;17.67;;;;;;;-3.44;100.00;96071.78;5044106;28;20045;-63
2022/12/15 01:20:18;;;;;;;35.47;17.10;;;;;;;-3.73;100.00;96094.84;5047778;28;20068;-63
2022/12/15 01:22:47;;;;;;;33.90;18.45;;;;;;;-3.73;100.00;96105.41;5046497;28;20049;-63
2022/12/15 01:25:15;;;;;;;39.67;18.63;;;;;;;-3.49;100.00;96112.09;5043038;28;20061;-63
2022/12/15 01:27:42;;;;;;;38.88;19.15;;;;;;;-3.66;100.00;96106.25;5046772;28;20114;-63
2022/12/15 01:30:11;;;;;;;34.75;17.95;;;;;;;-3.79;100.00;96114.94;5045463;28;20044;-61
2022/12/15 01:32:38;;;;;;;36.47;19.05;;;;;;;-3.87;100.00;96113.22;5029456;28;20133;-62
2022/12/15 01:35:11;;;;;;;37.35;17.73;;;;;;;-4.06;100.00;96104.13;5027801;28;20077;-62
2022/12/15 01:37:37;;;;;;;37.83;19.23;;;;;;;-4.11;100.00;96112.66;5036168;28;20056;-62
2022/12/15 01:42:51;;;;;;;36.00;18.45;;;;;;;-4.06;100.00;96104.13;5027911;28;20049;-63
2022/12/15 01:45:27;;;;;;;41.38;18.63;;;;;;;-4.04;100.00;96107.41;5030018;28;20116;-63
2022/12/15 01:47:57;;;;;;;43.35;20.70;;;;;;;-3.72;100.00;96118.44;5040713;28;20508;-62
2022/12/15 01:50:25;;;;;;;42.58;20.00;;;;;;;-3.55;100.00;96115.50;5041847;28;20044;-61
2022/12/15 01:52:53;;;;;;;41.47;18.10;;;;;;;-3.57;100.00;96118.34;5033755;28;20036;-63
2022/12/15 01:55:24;;;;;;;46.58;21.27;;;;;;;-3.40;100.00;96124.16;5045834;28;20590;-62
2022/12/15 01:57:56;;;;;;;35.17;17.75;;;;;;;-3.52;100.00;96120.41;5039166;28;20049;-62
2022/12/15 02:00:23;;;;;;;35.85;19.23;;;;;;;-3.41;100.00;96113.75;5028771;28;20563;-61
2022/12/15 02:02:50;;;;;;;39.13;18.33;;;;;;;-3.54;100.00;96102.06;5037209;28;20041;-64
2022/12/15 02:05:17;;;;;;;36.22;18.38;;;;;;;-3.54;100.00;96103.94;5025944;28;20041;-62
2022/12/15 02:07:43;;;;;;;39.28;19.55;;;;;;;-3.64;100.00;96104.25;5033999;28;20049;-63
2022/12/15 02:10:10;;;;;;;32.75;17.85;;;;;;;-3.70;100.00;96111.13;5055314;28;20435;-62
2022/12/15 02:13:01;;;;;;;38.72;19.38;;;;;;;-3.69;100.00;96114.59;5026483;28;20044;-62
2022/12/15 02:15:46;;;;;;;35.58;17.38;;;;;;;-3.66;100.00;96125.63;5041540;28;20460;-61
2022/12/15 02:18:36;;;;;;;37.78;18.33;;;;;;;-3.73;100.00;96126.59;5039692;28;20090;-63
2022/12/15 02:21:05;;;;;;;34.58;16.55;;;;;;;-3.84;100.00;96128.72;5029554;28;20071;-63
2022/12/15 02:23:39;;;;;;;35.78;18.65;;;;;;;-3.64;100.00;96129.88;5041859;28;20041;-61
2022/12/15 02:26:43;;;;;;;40.65;18.48;;;;;;;-3.63;100.00;96131.53;5043402;28;20595;-64
2022/12/15 02:29:27;;;;;;;37.83;18.00;;;;;;;-3.72;100.00;96121.06;5038328;28;20052;-63
2022/12/15 02:32:03;;;;;;;36.00;16.63;;;;;;;-3.66;100.00;96130.91;5043806;28;20052;-64
2022/12/15 02:34:38;;;;;;;36.05;17.52;;;;;;;-3.74;100.00;96132.88;5036012;28;20048;-64
2022/12/15 02:37:07;;;;;;;34.40;16.90;;;;;;;-3.98;100.00;96140.22;5027450;28;20065;-63
2022/12/15 02:39:34;;;;;;;33.03;16.40;;;;;;;-3.95;100.00;96147.75;5041222;28;20045;-62
2022/12/15 02:42:00;;;;;;;37.20;17.45;;;;;;;-3.93;100.00;96145.75;5031609;28;20104;-62
2022/12/15 02:44:37;;;;;;;36.20;16.83;;;;;;;-4.02;100.00;96142.41;5045798;28;20071;-62
2022/12/15 02:47:30;;;;;;;35.88;17.10;;;;;;;-4.07;100.00;96147.44;5037451;28;20053;-63
2022/12/15 02:50:08;;;;;;;38.15;17.52;;;;;;;-4.14;100.00;96150.03;5045868;28;20558;-61
2022/12/15 02:53:09;;;;;;;29.23;15.68;;;;;;;-4.11;100.00;96144.38;5039820;28;20099;-62
2022/12/15 02:56:07;;;;;;;37.22;18.80;;;;;;;-4.25;100.00;96150.50;5032575;28;20060;-62
2022/12/15 02:58:37;;;;;;;37.10;16.67;;;;;;;-4.09;100.00;96142.34;5038768;28;20053;-63
2022/12/15 03:01:26;;;;;;;37.67;17.23;;;;;;;-3.87;100.00;96137.03;5030993;28;20124;-61
2022/12/15 03:03:55;;;;;;;33.33;17.73;;;;;;;-3.92;100.00;96127.03;5030657;28;20658;-63
2022/12/15 03:06:25;;;;;;;36.13;18.23;;;;;;;-3.90;100.00;96134.78;5025172;28;20033;-63
2022/12/15 03:08:51;;;;;;;39.75;19.63;;;;;;;-3.64;100.00;96133.38;5039951;28;20067;-60
2022/12/15 03:11:18;;;;;;;31.92;18.00;;;;;;;-3.83;100.00;96146.22;5049348;28;20084;-63
2022/12/15 03:13:45;;;;;;;41.63;18.27;;;;;;;-3.81;100.00;96138.94;5037493;28;20037;-63
2022/12/15 03:16:15;;;;;;;34.63;17.25;;;;;;;-3.74;100.00;96144.28;5039392;28;20041;-63
2022/12/15 03:18:42;;;;;;;36.15;15.52;;;;;;;-3.78;100.00;96145.66;5035282;28;20040;-61
2022/12/15 03:21:08;;;;;;;34.20;17.05;;;;;;;-3.83;100.00;96156.81;5038045;28;20099;-64
2022/12/15 03:23:35;;;;;;;40.83;17.05;;;;;;;-3.60;100.00;96152.31;5035932;28;20032;-60
2022/12/15 03:26:01;;;;;;;36.83;16.85;;;;;;;-3.73;100.00;96153.03;5042256;28;20052;-63
2022/12/15 03:28:28;;;;;;;37.72;18.38;;;;;;;-3.68;100.00;96164.66;5026367;28;20084;-61
2022/12/15 03:30:55;;;;;;;39.17;17.25;;;;;;;-3.66;100.00;96161.81;5025319;28;20556;-63
2022/12/15 03:33:21;;;;;;;37.97;17.98;;;;;;;-3.73;100.00;96156.47;5025293;28;20049;-63
2022/12/15 03:35:49;;;;;;;36.05;18.73;;;;;;;-3.55;100.00;96157.84;5026366;28;20068;-63
2022/12/15 03:38:17;;;;;;;34.53;17.65;;;;;;;-3.71;100.00;96156.28;5025055;28;20041;-63
2022/12/15 03:40:43;;;;;;;40.00;17.50;;;;;;;-3.76;100.00;96164.00;5023147;28;20052;-62
2022/12/15 03:43:10;;;;;;;32.15;17.00;;;;;;;-3.68;100.00;96166.50;5037221;28;20578;-63
2022/12/15 03:45:36;;;;;;;31.80;16.73;;;;;;;-3.79;100.00;96179.22;5045679;28;20045;-60
2022/12/15 03:48:03;;;;;;;35.25;16.83;;;;;;;-3.79;100.00;96179.22;5033285;28;20069;-62
2022/12/15 03:50:30;;;;;;;34.53;16.67;;;;;;;-3.73;100.00;96185.59;5039797;28;20050;-61
2022/12/15 03:53:02;;;;;;;38.00;17.98;;;;;;;-3.73;100.00;96188.22;5024181;28;20718;-62
2022/12/15 03:55:29;;;;;;;35.03;18.13;;;;;;;-3.66;100.00;96175.06;5035168;28;20037;-63
2022/12/15 03:57:57;;;;;;;36.22;18.20;;;;;;;-3.58;100.00;96179.41;5045084;28;20048;-62
2022/12/15 04:00:24;;;;;;;41.20;19.23;;;;;;;-3.40;100.00;96174.44;5043583;28;20208;-63
2022/12/15 04:02:51;;;;;;;39.20;18.85;;;;;;;-3.50;100.00;96175.81;5043996;28;20041;-63
2022/12/15 04:05:28;;;;;;;39.05;19.00;;;;;;;-3.64;100.00;96183.63;5029681;28;20061;-62
2022/12/15 04:07:56;;;;;;;34.15;18.48;;;;;;;-3.64;100.00;96180.16;5044289;28;20048;-63
2022/12/15 04:10:24;;;;;;;35.67;17.73;;;;;;;-3.70;100.00;96197.59;5060426;28;20045;-60
2022/12/15 04:13:15;;;;;;;33.35;17.27;;;;;;;-3.73;100.00;96200.66;5025663;28;20045;-64
2022/12/15 04:15:41;;;;;;;34.55;16.50;;;;;;;-3.78;100.00;96203.84;5029134;28;20495;-63
2022/12/15 04:18:09;;;;;;;34.40;18.33;;;;;;;-3.70;100.00;96208.19;5040895;28;20576;-61
2022/12/15 04:20:37;;;;;;;34.63;17.85;;;;;;;-3.80;100.00;96206.69;5042716;28;20409;-61
2022/12/15 04:23:06;;;;;;;36.13;17.88;;;;;;;-3.84;100.00;96215.22;5045595;28;20099;-63
2022/12/15 05:32:07;;;;;;;44.60;23.40;;;;;;;-3.73;100.00;96221.81;5039180;28;20470;-66
2022/12/15 05:34:35;;;;;;;45.17;21.50;;;;;;;-3.68;100.00;96217.56;5037517;28;20038;-66
2022/12/15 05:37:03;;;;;;;42.08;20.40;;;;;;;-3.57;100.00;96218.88;5038084;28;20056;-65
2022/12/15 05:39:31;;;;;;;39.58;19.77;;;;;;;-3.68;100.00;96208.84;5027796;28;20579;-66
2022/12/15 05:41:58;;;;;;;39.78;19.42;;;;;;;-3.80;100.00;96203.22;5026119;28;20045;-65
2022/12/15 05:44:25;;;;;;;44.35;20.15;;;;;;;-3.81;100.00;96217.47;5034227;28;20064;-67
2022/12/15 05:46:51;;;;;;;42.70;21.65;;;;;;;-3.85;100.00;96227.59;5046070;28;20068;-65
2022/12/15 05:49:18;;;;;;;44.05;20.73;;;;;;;-3.79;100.00;96237.41;5038046;28;20037;-66
2022/12/15 05:51:47;;;;;;;41.80;19.55;;;;;;;-3.76;100.00;96241.50;5044184;28;20060;-66
2022/12/15 05:54:16;;;;;;;45.80;20.73;;;;;;;-3.77;100.00;96236.44;5047172;28;20047;-66
2022/12/15 05:56:43;;;;;;;39.17;18.10;;;;;;;-3.86;100.00;96231.28;5043150;28;20076;-66
2022/12/15 05:59:10;;;;;;;44.17;19.25;;;;;;;-3.94;100.00;96231.38;5047123;28;20055;-66
2022/12/15 06:01:37;;;;;;;47.38;20.83;;;;;;;-3.68;100.00;96224.72;5043710;28;20475;-67
2022/12/15 06:04:04;;;;;;;43.42;19.70;;;;;;;-3.75;100.00;96234.41;5045291;28;20103;-66
2022/12/15 06:06:30;;;;;;;45.63;22.02;;;;;;;-3.88;100.00;96232.47;5046939;28;20092;-66
2022/12/15 06:08:57;;;;;;;47.40;20.08;;;;;;;-3.71;100.00;96225.09;5041436;28;20049;-66
2022/12/15 06:11:24;;;;;;;43.60;19.70;;;;;;;-3.74;100.00;96234.22;5035199;28;20500;-67
2022/12/15 06:13:50;;;;;;;50.78;20.05;;;;;;;-3.72;100.00;96229.53;5037993;28;20569;-66
2022/12/15 06:16:19;;;;;;;47.78;20.80;;;;;;;-3.80;100.00;96233.13;5036118;28;20045;-66
2022/12/15 06:18:51;;;;;;;39.58;20.10;;;;;;;-3.91;100.00;96238.91;5040437;28;20476;-67
2022/12/15 06:21:25;;;;;;;44.42;19.52;;;;;;;-3.86;100.00;96247.13;5036699;28;20045;-66
2022/12/15 06:23:52;;;;;;;42.63;19.83;;;;;;;-3.64;100.00;96257.72;5042951;28;20492;-66
2022/12/15 06:26:25;;;;;;;39.88;19.02;;;;;;;-3.72;100.00;96258.66;5044602;28;20110;-66
2022/12/15 06:28:55;;;;;;;43.40;20.77;;;;;;;-3.74;100.00;96258.03;5041817;28;20048;-67
2022/12/15 06:31:21;;;;;;;43.00;19.58;;;;;;;-3.72;100.00;96241.97;5040707;28;20841;-66
2022/12/15 06:33:49;;;;;;;38.58;18.73;;;;;;;-3.72;100.00;96237.47;5031529;28;20045;-66
2022/12/15 06:36:24;;;;;;;43.58;20.38;;;;;;;-3.72;100.00;96241.97;5031051;28;20083;-66
2022/12/15 06:38:51;;;;;;;43.58;20.00;;;;;;;-3.66;100.00;96242.03;5033941;28;20052;-66
2022/12/15 06:41:20;;;;;;;43.47;21.35;;;;;;;-3.75;100.00;96251.09;5041921;28;20496;-66
2022/12/15 06:43:54;;;;;;;50.22;22.35;;;;;;;-3.55;100.00;96256.56;5051391;28;20817;-65
2022/12/15 06:46:22;;;;;;;46.53;21.05;;;;;;;-3.38;100.00;96248.38;5024686;28;20570;-66
2022/12/15 06:48:49;;;;;;;49.70;22.10;;;;;;;-3.54;100.00;96252.91;5038139;28;20064;-66
2022/12/15 06:51:16;;;;;;;46.47;20.58;;;;;;;-3.60;100.00;96255.50;5041304;28;20065;-66
2022/12/15 06:53:52;;;;;;;47.35;20.98;;;;;;;-3.55;100.00;96253.09;5043971;28;20132;-65
2022/12/15 06:56:22;;;;;;;48.63;21.63;;;;;;;-3.57;100.00;96253.28;5040235;28;20046;-66
2022/12/15 06:58:58;;;;;;;43.25;20.55;;;;;;;-3.69;100.00;96260.13;5039588;28;20394;-65
2022/12/15 07:01:24;;;;;;;49.17;23.05;;;;;;;-3.31;100.00;96245.78;5034844;28;20534;-65
2022/12/15 07:03:52;;;;;;;45.80;21.60;;;;;;;-3.28;100.00;96240.91;5040548;28;20045;-66
2022/12/15 07:06:19;;;;;;;45.80;21.13;;;;;;;-3.41;100.00;96233.69;5043139;28;20041;-66
2022/12/15 07:08:51;;;;;;;50.00;23.02;;;;;;;-3.61;100.00;96238.00;5041211;28;20049;-66
2022/12/15 07:11:19;;;;;;;45.72;21.58;;;;;;;-3.69;100.00;96246.91;5037740;28;20048;-62
2022/12/15 07:13:51;;;;;;;50.47;20.23;;;;;;;-3.53;100.00;96243.16;5042943;28;20049;-63
2022/12/15 07:16:19;;;;;;;45.75;19.85;;;;;;;-3.71;100.00;96248.91;5042469;28;20029;-62
2022/12/15 07:18:46;;;;;;;39.35;20.58;;;;;;;-3.58;100.00;96256.16;5037392;28;20057;-61
2022/12/15 07:21:13;;;;;;;44.95;21.17;;;;;;;-3.47;100.00;96255.63;5042105;28;20521;-62
2022/12/15 07:23:39;;;;;;;43.45;21.58;;;;;;;-3.43;100.00;96259.53;5050564;28;20055;-58
2022/12/15 07:26:24;;;;;;;43.42;19.58;;;;;;;-3.37;100.00;96251.81;5032845;28;20067;-61
2022/12/15 07:28:52;;;;;;;43.15;20.55;;;;;;;-3.37;100.00;96250.00;5041958;28;20063;-57
2022/12/15 07:31:18;;;;;;;45.95;22.88;;;;;;;-3.41;100.00;96254.03;5041263;28;20029;-60
2022/12/15 07:33:47;;;;;;;76.45;42.10;;;;;;;-3.36;100.00;96256.94;5037889;28;20805;-60
2022/12/15 07:36:13;;;;;;;51.08;25.58;;;;;;;-3.42;100.00;96263.81;5037137;28;20056;-63
2022/12/15 07:38:40;;;;;;;53.28;24.38;;;;;;;-3.43;100.00;96267.47;5042654;28;20128;-60
2022/12/15 07:41:08;;;;;;;45.08;21.70;;;;;;;-3.15;100.00;96265.84;5037270;28;20041;-62
2022/12/15 07:43:34;;;;;;;50.08;21.00;;;;;;;-3.20;100.00;96255.03;5032738;28;20041;-62
2022/12/15 07:46:03;;;;;;;48.80;21.85;;;;;;;-3.20;100.00;96255.03;5044545;28;20553;-62
2022/12/15 07:48:31;;;;;;;48.15;21.88;;;;;;;-3.25;100.00;96252.94;5045551;28;20049;-64
2022/12/15 07:50:58;;;;;;;42.10;20.58;;;;;;;-3.20;100.00;96260.31;5041444;28;20045;-57
2022/12/15 07:53:34;;;;;;;41.22;20.55;;;;;;;-3.12;100.00;96260.19;5031878;28;20063;-62
2022/12/15 07:56:04;;;;;;;45.05;20.70;;;;;;;-3.13;100.00;96269.16;5025870;28;20048;-59
2022/12/15 07:58:34;;;;;;;44.05;21.98;;;;;;;-3.09;100.00;96274.88;5024148;28;20044;-60
2022/12/15 08:01:03;;;;;;;40.15;20.27;;;;;;;-3.13;100.00;96282.38;5028181;28;20647;-61
2022/12/15 08:03:30;;;;;;;45.58;22.20;;;;;;;-3.10;100.00;96295.22;5035620;28;20047;-61
2022/12/15 08:06:02;;;;;;;61.05;31.67;;;;;;;-3.44;100.00;96296.75;5032661;28;20047;-59
2022/12/15 08:08:30;;;;;;;46.38;20.10;;;;;;;-3.32;100.00;96307.69;5049887;28;20040;-59
2022/12/15 08:10:58;;;;;;;49.85;24.25;;;;;;;-3.40;100.00;96313.91;5049346;28;20466;-56
2022/12/15 08:13:24;;;;;;;67.68;33.58;;;;;;;-3.37;100.00;96312.72;5032059;28;20049;-55
2022/12/15 08:16:11;;;;;;;51.00;23.30;;;;;;;-3.38;100.00;96313.72;5041704;28;20055;-55
2022/12/15 08:18:38;;;;;;;75.57;41.47;;;;;;;-3.35;100.00;96303.59;5041791;28;20128;-55
2022/12/15 08:21:07;;;;;;;52.72;25.58;;;;;;;-3.41;100.00;96293.75;5028157;28;20044;-58
2022/12/15 08:23:34;;;;;;;59.22;28.20;;;;;;;-2.98;100.00;96300.00;5033900;28;20041;-58
2022/12/15 08:26:10;;;;;;;53.50;25.52;;;;;;;-2.99;100.00;96308.97;5059753;28;20110;-54
2022/12/15 08:28:38;;;;;;;71.35;36.95;;;;;;;-2.96;100.00;96309.41;5040157;28;20147;-58
2022/12/15 08:31:24;;;;;;;47.92;22.63;;;;;;;-2.83;100.00;96318.47;5039698;28;20107;-56
2022/12/15 08:33:50;;;;;;;53.40;24.50;;;;;;;-2.56;100.00;96332.72;5040205;28;20124;-56
2022/12/15 08:36:18;;;;;;;50.92;22.10;;;;;;;-2.56;100.00;96327.41;5041016;28;20048;-53
2022/12/15 08:38:46;;;;;;;46.45;22.10;;;;;;;-2.78;100.00;96327.47;5047541;28;20068;-54
2022/12/15 08:41:14;;;;;;;51.10;23.52;;;;;;;-2.77;100.00;96333.56;5047738;28;20116;-57
2022/12/15 08:43:41;;;;;;;39.38;19.80;;;;;;;-2.80;100.00;96332.13;5034343;28;20110;-59
2022/12/15 08:46:26;;;;;;;43.17;21.17;;;;;;;-2.83;100.00;96329.06;5028826;28;20095;-57
2022/12/15 08:48:53;;;;;;;50.42;22.70;;;;;;;-2.78;100.00;96330.13;5032680;28;20041;-57
2022/12/15 08:51:21;;;;;;;40.97;21.48;;;;;;;-2.84;100.00;96333.53;5027928;28;20512;-57
2022/12/15 08:53:47;;;;;;;41.08;19.52;;;;;;;-2.64;100.00;96338.16;5041120;28;20587;-58
2022/12/15 08:56:19;;;;;;;45.60;21.05;;;;;;;-2.57;100.00;96327.59;5029076;28;20056;-54
2022/12/15 08:58:47;;;;;;;44.42;22.08;;;;;;;-2.78;100.00;96321.34;5036619;28;20125;-58
2022/12/15 09:01:20;;;;;;;50.90;22.15;;;;;;;-2.78;100.00;96327.47;5026686;28;20053;-60
2022/12/15 09:03:50;;;;;;;45.10;21.70;;;;;;;-2.67;100.00;96322.63;5029287;28;20052;-58
2022/12/15 09:06:24;;;;;;;41.70;21.30;;;;;;;-2.69;100.00;96320.19;5031730;28;20531;-57
2022/12/15 09:08:55;;;;;;;50.25;23.75;;;;;;;-2.84;100.00;96314.97;5041194;28;20103;-58
2022/12/15 09:11:23;;;;;;;49.13;22.33;;;;;;;-2.83;100.00;96319.28;5033803;28;20033;-54
2022/12/15 09:13:50;;;;;;;50.75;23.02;;;;;;;-2.88;100.00;96327.81;5032997;28;20597;-56
2022/12/15 09:16:18;;;;;;;47.28;21.77;;;;;;;-2.65;100.00;96325.94;5028480;28;20045;-56
2022/12/15 09:18:50;;;;;;;39.17;20.85;;;;;;;-2.62;100.00;96329.00;5042274;28;20279;-55
2022/12/15 09:21:18;;;;;;;48.15;20.77;;;;;;;-2.67;100.00;96336.72;5043065;28;20496;-55
2022/12/15 09:23:50;;;;;;;48.60;21.35;;;;;;;-2.51;100.00;96332.94;5027465;28;20056;-57
2022/12/15 09:26:19;;;;;;;46.00;22.85;;;;;;;-2.59;100.00;96332.28;5046422;28;20041;-56
2022/12/15 09:28:46;;;;;;;43.45;20.13;;;;;;;-2.61;100.00;96327.19;5047285;28;20091;-52
2022/12/15 09:31:22;;;;;;;42.70;20.25;;;;;;;-2.47;100.00;96319.31;5042062;28;20045;-57
2022/12/15 09:33:51;;;;;;;44.78;21.08;;;;;;;-2.33;100.00;96323.66;5028219;28;20111;-56
2022/12/15 09:36:18;;;;;;;47.28;23.67;;;;;;;-2.51;100.00;96326.84;5044934;28;20036;-54
2022/12/15 09:38:45;;;;;;;45.50;20.95;;;;;;;-2.38;100.00;96331.38;5047615;28;20186;-56
2022/12/15 09:41:14;;;;;;;51.03;19.83;;;;;;;-2.33;100.00;96323.66;5045354;28;20037;-57
2022/12/15 09:44:08;;;;;;;42.08;20.27;;;;;;;-2.51;100.00;96319.69;5038844;28;20045;-56
2022/12/15 09:46:53;;;;;;;48.55;21.80;;;;;;;-2.61;100.00;96332.47;5039355;28;20132;-57
2022/12/15 09:49:52;;;;;;;43.75;19.42;;;;;;;-2.55;100.00;96330.91;5036241;28;20083;-61
2022/12/15 09:52:24;;;;;;;45.85;20.80;;;;;;;-2.52;100.00;96326.00;5045935;28;20033;-60
2022/12/15 09:54:51;;;;;;;;;;;;;;;-2.47;100.00;96337.88;5035815;28;20069;-62
2022/12/15 09:57:43;;;;;;;42.78;20.15;;;;;;;-2.15;100.00;96332.94;5026785;28;19990;-57
2022/12/15 10:00:31;;;;;;;45.30;20.17;;;;;;;-1.98;100.00;96330.78;5045048;28;20072;-56
2022/12/15 10:03:28;;;;;;;40.35;20.25;;;;;;;-2.11;100.00;96315.59;5045377;28;20128;-60
2022/12/15 10:06:09;;;;;;;44.35;21.90;;;;;;;-2.10;100.00;96315.41;5025889;28;20042;-55
2022/12/15 10:09:08;;;;;;;44.80;21.67;;;;;;;-2.36;100.00;96327.53;5040368;28;20052;-56
2022/12/15 10:11:53;;;;;;;37.97;19.75;;;;;;;-2.42;100.00;96323.00;5038756;28;20041;-54
2022/12/15 10:14:31;;;;;;;52.20;22.58;;;;;;;-2.47;100.00;96324.59;5040086;28;20041;-61
2022/12/15 10:17:13;;;;;;;47.15;20.30;;;;;;;-2.38;100.00;96334.03;5045907;28;20479;-60
2022/12/15 10:19:45;;;;;;;47.53;21.38;;;;;;;-2.31;100.00;96331.41;5040957;28;20516;-56
2022/12/15 10:22:23;;;;;;;46.03;22.15;;;;;;;-2.36;100.00;96327.53;5031027;28;20045;-59
2022/12/15 10:24:49;;;;;;;45.03;21.80;;;;;;;-2.20;100.00;96336.19;5034040;28;20728;-56
2022/12/15 10:28:05;;;;;;;49.42;21.40;;;;;;;-1.98;100.00;96347.50;5041854;28;20128;-57
2022/12/15 10:30:34;;;;;;;46.50;21.35;;;;;;;-1.91;100.00;96346.72;5035095;28;20256;-60
2022/12/15 10:33:18;;;;;;;43.40;20.73;;;;;;;-2.05;100.00;96336.06;5044412;28;20057;-60
2022/12/15 10:35:46;;;;;;;42.35;20.25;;;;;;;-2.05;100.00;96325.44;5039864;28;20039;-57
2022/12/15 10:38:36;;;;;;;43.33;21.73;;;;;;;-2.07;100.00;96302.78;5035377;28;20080;-58
2022/12/15 10:41:17;;;;;;;45.15;20.85;;;;;;;-2.03;100.00;96291.56;5023296;28;20056;-60
2022/12/15 10:43:47;;;;;;;45.42;21.83;;;;;;;-1.96;100.00;96284.44;5046416;28;20119;-59
2022/12/15 10:46:23;;;;;;;42.53;20.88;;;;;;;-1.83;100.00;96277.56;5040804;28;20037;-57
2022/12/15 10:49:10;;;;;;;40.20;20.65;;;;;;;-1.56;100.00;96267.00;5039719;28;20144;-58
2022/12/15 10:51:50;;;;;;;36.05;19.30;;;;;;;-1.84;100.00;96260.00;5022660;28;20076;-57
2022/12/15 10:54:17;;;;;;;44.55;21.48;;;;;;;-2.11;100.00;96257.25;5044015;28;20080;-59
2022/12/15 10:56:48;;;;;;;42.47;20.75;;;;;;;-2.26;100.00;96250.28;5039988;28;20543;-58
2022/12/15 10:59:32;;;;;;;47.88;21.27;;;;;;;-2.53;100.00;96244.88;5033315;28;20100;-59
2022/12/15 11:02:28;;;;;;;40.30;20.90;;;;;;;-2.55;100.00;96256.69;5034857;28;20072;-56
2022/12/15 11:05:04;;;;;;;40.65;20.48;;;;;;;-2.53;100.00;96259.94;5032729;28;20047;-57
2022/12/15 11:07:39;;;;;;;40.05;21.38;;;;;;;-2.50;100.00;96260.34;5042239;28;20045;-58
2022/12/15 11:10:22;;;;;;;43.08;21.90;;;;;;;-2.58;100.00;96263.16;5053118;28;20095;-59
2022/12/15 11:13:14;;;;;;;40.33;19.45;;;;;;;-2.47;100.00;96274.25;5034940;28;20063;-60
2022/12/15 11:15:49;;;;;;;44.90;20.67;;;;;;;-2.26;100.00;96270.66;5030990;28;20040;-59
2022/12/15 11:18:21;;;;;;;44.10;20.55;;;;;;;-2.09;100.00;96277.25;5029044;28;20049;-60
2022/12/15 11:21:23;;;;;;;45.63;20.38;;;;;;;-1.94;100.00;96275.47;5039146;28;20107;-59
2022/12/15 11:24:11;;;;;;;38.60;19.55;;;;;;;-2.31;100.00;96262.47;5028524;28;20799;-58
2022/12/15 11:27:02;;;;;;;39.92;20.08;;;;;;;-2.24;100.00;96280.06;5040702;28;20052;-58
2022/12/15 11:29:36;;;;;;;37.42;19.98;;;;;;;-2.15;100.00;96274.56;5035419;28;20528;-60
2022/12/15 11:32:04;;;;;;;40.40;20.77;;;;;;;-2.18;100.00;96264.38;5038187;28;20044;-59
2022/12/15 11:34:40;;;;;;;41.38;21.08;;;;;;;-2.34;100.00;96261.03;5040948;28;20055;-58
2022/12/15 11:37:36;;;;;;;41.97;19.00;;;;;;;-2.23;100.00;96264.97;5042204;28;20041;-59
2022/12/15 11:40:25;;;;;;;42.33;21.38;;;;;;;-2.28;100.00;96259.44;5031751;28;20036;-59
2022/12/15 11:43:13;;;;;;;38.35;21.38;;;;;;;-2.18;100.00;96251.94;5040443;28;20527;-58
2022/12/15 11:46:16;;;;;;;36.33;19.90;;;;;;;-2.14;100.00;96247.06;5040654;28;20041;-57
2022/12/15 11:49:21;;;;;;;36.72;19.08;;;;;;;-2.14;100.00;96234.59;5042644;28;20568;-59
2022/12/15 11:51:55;;;;;;;40.75;20.65;;;;;;;-2.17;100.00;96226.22;5040514;28;20098;-57
2022/12/15 11:54:28;;;;;;;40.72;19.92;;;;;;;-2.15;100.00;96222.38;5043374;28;20128;-59
2022/12/15 11:57:02;;;;;;;38.10;18.63;;;;;;;-2.05;100.00;96232.59;5025554;28;20037;-58
2022/12/15 12:00:07;;;;;;;41.38;21.63;;;;;;;-2.26;100.00;96223.75;5023817;28;20091;-59
2022/12/15 12:02:48;;;;;;;43.08;21.15;;;;;;;-2.05;100.00;96207.91;5040365;28;20132;-57
2022/12/15 12:05:49;;;;;;;45.92;24.05;;;;;;;-2.02;100.00;96197.72;5031724;28;20048;-56
2022/12/15 12:08:36;;;;;;;42.13;21.07;;;;;;;-2.17;100.00;96195.25;5029844;28;20107;-58
2022/12/15 12:11:11;;;;;;;43.33;21.00;;;;;;;-2.16;100.00;96183.59;5043411;28;20380;-57
2022/12/15 12:14:21;;;;;;;47.35;21.05;;;;;;;-2.14;100.00;96181.56;5025431;28;20099;-57
2022/12/15 12:16:53;;;;;;;40.97;19.90;;;;;;;-2.05;100.00;96178.72;5012440;28;20049;-59
2022/12/15 12:19:44;;;;;;;40.17;20.30;;;;;;;-2.00;100.00;96178.94;5045989;28;20049;-57
2022/12/15 12:22:41;;;;;;;35.75;18.80;;;;;;;-1.90;100.00;96168.75;5041467;28;20100;-59
2022/12/15 12:25:15;;;;;;;38.15;18.90;;;;;;;-1.86;100.00;96171.81;5044653;28;20049;-59
2022/12/15 12:27:51;;;;;;;36.58;18.25;;;;;;;-1.93;100.00;96168.31;5037357;28;20044;-59
2022/12/15 12:30:25;;;;;;;36.13;20.08;;;;;;;-1.99;100.00;96168.13;5039746;28;20072;-57
2022/12/15 12:33:04;;;;;;;46.47;24.63;;;;;;;-1.90;100.00;96165.28;5030458;28;20140;-58
2022/12/15 12:35:45;;;;;;;41.63;20.00;;;;;;;-1.97;100.00;96170.56;5032006;28;20636;-59
2022/12/15 12:38:19;;;;;;;41.72;21.02;;;;;;;-2.12;100.00;96171.56;5040989;28;20047;-57
2022/12/15 12:41:14;;;;;;;35.72;19.48;;;;;;;-1.84;100.00;96159.16;5031553;28;20048;-55
2022/12/15 12:43:46;;;;;;;39.25;19.20;;;;;;;-1.60;100.00;96162.22;5041174;28;20053;-59
2022/12/15 12:46:26;;;;;;;39.58;20.17;;;;;;;-1.43;100.00;96146.72;5045872;28;20041;-56
2022/12/15 12:49:16;;;;;;;35.63;19.30;;;;;;;-1.35;100.00;96156.28;5046166;28;20045;-58
2022/12/15 12:51:54;;;;;;;36.35;18.92;;;;;;;-1.63;100.00;96165.28;5029387;28;20782;-58
2022/12/15 12:54:35;;;;;;;38.58;20.42;;;;;;;-1.50;100.00;96162.66;5041306;28;20080;-59
2022/12/15 12:57:10;;;;;;;39.08;20.25;;;;;;;-1.51;100.00;96150.38;5048650;28;20111;-60
2022/12/15 12:59:46;;;;;;;44.97;19.92;;;;;;;-1.39;100.00;96150.59;5033614;28;20084;-60
2022/12/15 13:02:36;;;;;;;38.75;18.95;;;;;;;-1.06;98.62;96151.56;5043741;28;20126;-60
2022/12/15 13:05:22;;;;;;;36.42;19.70;;;;;;;-1.23;98.52;96148.50;5029426;28;20116;-60
2022/12/15 13:08:03;;;;;;;34.00;18.13;;;;;;;-1.55;100.00;96148.34;5027133;28;20049;-59
2022/12/15 13:10:47;;;;;;;42.47;20.70;;;;;;;-1.70;100.00;96144.88;5040698;28;20041;-60
2022/12/15 13:13:40;;;;;;;30.58;16.38;;;;;;;-1.40;100.00;96130.34;5035757;28;20037;-59
2022/12/15 13:16:24;;;;;;;34.30;17.90;;;;;;;-1.35;100.00;96119.13;5039538;28;20059;-59
2022/12/15 13:19:01;;;;;;;35.28;18.63;;;;;;;-1.52;99.89;96116.09;5045508;28;20086;-59
2022/12/15 13:21:40;;;;;;;41.08;20.50;;;;;;;-1.77;100.00;96111.41;5043896;28;20075;-59
2022/12/15 13:24:34;;;;;;;39.60;18.13;;;;;;;-1.99;100.00;96112.41;5042921;28;20072;-59
2022/12/15 13:27:18;;;;;;;39.65;18.63;;;;;;;-2.01;100.00;96106.50;5033770;28;20037;-59
2022/12/15 13:30:14;;;;;;;33.60;17.63;;;;;;;-1.93;100.00;96100.16;5041764;28;20166;-58
2022/12/15 13:32:43;;;;;;;36.10;18.00;;;;;;;-1.95;100.00;96107.53;5025362;28;20046;-58
2022/12/15 13:35:10;;;;;;;33.33;17.33;;;;;;;-1.84;100.00;96090.97;5043854;28;20401;-59
2022/12/15 13:37:47;;;;;;;35.70;21.23;;;;;;;-1.77;100.00;96084.88;5053258;28;20331;-59
2022/12/15 13:40:33;;;;;;;33.90;18.90;;;;;;;-1.73;100.00;96084.22;5042090;28;20041;-59
2022/12/15 13:43:03;;;;;;;31.13;16.75;;;;;;;-1.82;100.00;96093.44;5038885;28;20044;-60
2022/12/15 13:45:49;;;;;;;39.65;19.52;;;;;;;-1.72;100.00;96093.84;5042163;28;20504;-58
2022/12/15 13:48:41;;;;;;;37.30;20.10;;;;;;;-1.85;100.00;96085.88;5043515;28;20095;-58
2022/12/15 13:51:28;;;;;;;33.42;18.85;;;;;;;-1.92;100.00;96077.13;5032943;28;20095;-57
2022/12/15 13:54:18;;;;;;;33.97;17.58;;;;;;;-1.88;100.00;96071.19;5045706;28;20044;-58
2022/12/15 13:56:53;;;;;;;35.70;17.50;;;;;;;-1.86;100.00;96076.28;5029052;28;20060;-59
2022/12/15 13:59:25;;;;;;;33.90;17.13;;;;;;;-1.87;100.00;96072.00;5034610;28;20677;-58
2022/12/15 14:01:52;;;;;;;39.83;20.45;;;;;;;-1.73;100.00;96067.50;5044888;28;20646;-59